Time;durP1;ratioP1;P1;durP2;ratioP2;P2;SDS_P1;SDS_P2;PMS_P1;PMS_P2;Temp;Humidity;BMP_temperature;BMP_pressure;BME280_temperature;BME280_humidity;BME280_pressure;Samples;Min_cycle;Max_cycle;Signal;HPM_P1;HPM_P2
2024/03/09 00:00:23;;;;;;;27.80;16.58;;;6.40;81.40;;;;;;5091579;28;20469;-37
2024/03/09 00:02:53;;;;;;;26.80;16.48;;;6.30;81.30;;;;;;5089988;28;20476;-36
2024/03/09 00:05:20;;;;;;;26.40;16.10;;;6.30;81.50;;;;;;5091411;28;20020;-36
2024/03/09 00:07:47;;;;;;;27.17;17.45;;;6.30;81.40;;;;;;5090968;28;20025;-38
2024/03/09 00:10:14;;;;;;;28.02;16.98;;;6.30;81.50;;;;;;5091544;28;20028;-37
2024/03/09 00:12:42;;;;;;;29.35;17.85;;;6.30;82.10;;;;;;5091047;28;20357;-37
2024/03/09 00:15:11;;;;;;;26.65;16.58;;;6.30;81.40;;;;;;5091376;28;20481;-37
2024/03/09 00:17:41;;;;;;;32.78;17.83;;;6.30;81.40;;;;;;5090898;28;20024;-39
2024/03/09 00:20:13;;;;;;;28.58;17.05;;;6.30;81.40;;;;;;5091101;28;20020;-37
2024/03/09 00:22:40;;;;;;;27.80;17.50;;;6.20;81.40;;;;;;5091073;28;20027;-36
2024/03/09 00:25:08;;;;;;;28.05;16.80;;;6.20;81.40;;;;;;5090919;28;20016;-34
2024/03/09 00:27:34;;;;;;;28.10;17.67;;;6.20;81.40;;;;;;5094310;28;20032;-36
2024/03/09 00:29:59;;;;;;;26.48;16.55;;;6.20;81.40;;;;;;5094992;28;20020;-36
2024/03/09 00:32:25;;;;;;;29.45;17.63;;;6.20;81.40;;;;;;5094755;28;20024;-36
2024/03/09 00:34:51;;;;;;;27.85;17.35;;;6.20;81.40;;;;;;5094382;28;20123;-37
2024/03/09 00:37:17;;;;;;;28.77;17.08;;;6.10;81.40;;;;;;5094536;28;20028;-36
2024/03/09 00:39:43;;;;;;;28.70;17.13;;;6.20;81.40;;;;;;5094822;28;20022;-37
2024/03/09 00:42:14;;;;;;;28.75;17.05;;;6.10;81.40;;;;;;5094802;28;20024;-37
2024/03/09 00:44:41;;;;;;;29.85;17.05;;;6.10;81.50;;;;;;5094464;28;20024;-38
2024/03/09 00:47:07;;;;;;;27.95;16.48;;;6.10;81.50;;;;;;5094245;28;20032;-37
2024/03/09 00:49:34;;;;;;;28.80;16.75;;;6.10;81.50;;;;;;5094319;28;20040;-36
2024/03/09 00:52:06;;;;;;;25.77;16.52;;;6.10;81.60;;;;;;5094590;28;20365;-36
2024/03/09 00:54:32;;;;;;;29.13;17.23;;;6.10;81.70;;;;;;5094654;28;20362;-36
2024/03/09 00:56:58;;;;;;;28.35;17.00;;;6.00;81.70;;;;;;5094418;28;20043;-36
2024/03/09 00:59:24;;;;;;;26.80;15.90;;;6.00;81.60;;;;;;5093010;28;20115;-39
2024/03/09 01:01:50;;;;;;;26.02;16.23;;;6.00;81.70;;;;;;5094102;28;20111;-38
2024/03/09 01:04:16;;;;;;;28.88;17.20;;;6.00;81.80;;;;;;5094422;28;20028;-36
2024/03/09 01:06:42;;;;;;;28.33;16.70;;;6.00;81.80;;;;;;5093824;28;20065;-39
2024/03/09 01:09:10;;;;;;;28.05;16.40;;;6.00;81.80;;;;;;5094329;28;20043;-39
2024/03/09 01:11:36;;;;;;;27.45;16.35;;;6.00;82.10;;;;;;5094192;28;20024;-36
2024/03/09 01:14:01;;;;;;;26.05;16.38;;;6.00;82.10;;;;;;5094112;28;20020;-37
2024/03/09 01:16:29;;;;;;;25.48;16.13;;;6.00;82.20;;;;;;5094201;28;20121;-42
2024/03/09 01:18:55;;;;;;;27.85;16.45;;;6.00;82.20;;;;;;5093881;28;20063;-34
2024/03/09 01:21:21;;;;;;;28.05;15.90;;;6.00;82.30;;;;;;5093063;28;20468;-36
2024/03/09 01:23:47;;;;;;;30.20;16.83;;;5.90;82.30;;;;;;5093763;28;20028;-37
2024/03/09 01:26:13;;;;;;;26.30;16.33;;;5.90;82.40;;;;;;5094068;28;20371;-38
2024/03/09 01:28:39;;;;;;;27.70;16.35;;;5.90;82.30;;;;;;5093711;28;20024;-36
2024/03/09 01:31:08;;;;;;;26.40;16.20;;;5.90;82.60;;;;;;5093547;28;20107;-35
2024/03/09 01:33:34;;;;;;;26.70;16.42;;;5.90;82.80;;;;;;5093988;28;20476;-36
2024/03/09 01:36:00;;;;;;;26.77;16.83;;;5.90;82.90;;;;;;5093251;28;20070;-37
2024/03/09 01:38:25;;;;;;;27.50;16.35;;;5.90;82.80;;;;;;5093392;28;20426;-37
2024/03/09 01:40:51;;;;;;;28.75;17.15;;;5.90;82.90;;;;;;5093444;28;20063;-37
2024/03/09 01:43:20;;;;;;;28.52;15.60;;;5.80;82.60;;;;;;5093695;28;20020;-36
2024/03/09 01:45:49;;;;;;;25.08;16.33;;;5.90;82.70;;;;;;5093579;28;20055;-37
2024/03/09 01:48:20;;;;;;;29.17;17.20;;;5.80;82.70;;;;;;5093403;28;20035;-35
2024/03/09 01:50:46;;;;;;;28.27;16.25;;;5.80;82.80;;;;;;5093537;28;20050;-36
2024/03/09 01:53:13;;;;;;;28.02;16.85;;;5.80;82.90;;;;;;5093289;28;20116;-37
2024/03/09 01:55:43;;;;;;;27.98;16.67;;;5.80;82.70;;;;;;5093052;28;20032;-33
2024/03/09 01:58:11;;;;;;;27.17;16.77;;;5.80;82.70;;;;;;5092981;28;20080;-36
2024/03/09 02:00:37;;;;;;;29.77;16.25;;;5.80;82.70;;;;;;5093003;28;20388;-35
2024/03/09 02:03:08;;;;;;;29.23;17.45;;;5.70;82.60;;;;;;5092737;28;20418;-45
2024/03/09 02:05:39;;;;;;;26.00;16.20;;;5.70;82.70;;;;;;5093081;28;20032;-36
2024/03/09 02:08:06;;;;;;;27.63;16.92;;;5.70;82.60;;;;;;5093166;28;20020;-36
2024/03/09 02:10:33;;;;;;;29.23;16.67;;;5.70;82.60;;;;;;5093170;28;20055;-37
2024/03/09 02:12:58;;;;;;;24.35;15.18;;;5.70;82.90;;;;;;5091520;28;20039;-35
2024/03/09 02:15:29;;;;;;;23.77;15.98;;;5.70;82.90;;;;;;5092851;28;20057;-35
2024/03/09 02:17:58;;;;;;;26.45;16.52;;;5.70;82.90;;;;;;5092940;28;20039;-35
2024/03/09 02:20:30;;;;;;;29.67;16.75;;;5.70;83.40;;;;;;5093114;28;20435;-37
2024/03/09 02:22:57;;;;;;;27.52;16.73;;;5.60;82.90;;;;;;5092606;28;20024;-38
2024/03/09 02:25:24;;;;;;;26.60;15.90;;;5.60;82.90;;;;;;5092587;28;20059;-36
2024/03/09 02:27:52;;;;;;;26.70;16.10;;;5.60;82.90;;;;;;5092379;28;20070;-38
2024/03/09 02:30:19;;;;;;;27.75;16.15;;;5.60;82.80;;;;;;5093043;28;20027;-36
2024/03/09 02:32:45;;;;;;;25.45;15.57;;;5.60;82.80;;;;;;5092411;28;20115;-35
2024/03/09 02:35:11;;;;;;;26.33;16.23;;;5.60;82.80;;;;;;5092349;28;20047;-36
2024/03/09 02:37:38;;;;;;;28.13;16.63;;;5.60;82.80;;;;;;5092245;28;20629;-34
2024/03/09 02:40:05;;;;;;;25.85;16.58;;;5.60;82.80;;;;;;5092402;28;20439;-36
2024/03/09 02:42:32;;;;;;;27.33;16.58;;;5.50;82.80;;;;;;5092531;28;20098;-36
2024/03/09 02:44:58;;;;;;;25.60;15.60;;;5.60;82.80;;;;;;5092089;28;20058;-36
2024/03/09 02:47:23;;;;;;;26.48;14.85;;;5.50;82.70;;;;;;5092093;28;20480;-36
2024/03/09 02:49:49;;;;;;;27.08;16.52;;;5.50;82.80;;;;;;5091399;28;20059;-38
2024/03/09 02:52:15;;;;;;;24.40;15.90;;;5.50;82.80;;;;;;5092355;28;20477;-37
2024/03/09 02:54:42;;;;;;;26.95;15.98;;;5.50;82.80;;;;;;5091937;28;20073;-36
2024/03/09 02:57:08;;;;;;;27.73;17.13;;;5.50;82.80;;;;;;5092291;28;20028;-36
2024/03/09 02:59:35;;;;;;;27.65;16.27;;;5.50;82.70;;;;;;5092452;28;20031;-38
2024/03/09 03:02:13;;;;;;;27.27;16.92;;;5.50;82.80;;;;;;5091813;28;20024;-37
2024/03/09 03:04:40;;;;;;;25.85;16.52;;;5.50;82.80;;;;;;5092125;28;20032;-36
2024/03/09 03:07:08;;;;;;;27.10;16.42;;;5.50;82.80;;;;;;5091648;28;20103;-34
2024/03/09 03:09:34;;;;;;;25.02;16.00;;;5.40;82.70;;;;;;5092170;28;20024;-36
2024/03/09 03:12:01;;;;;;;27.75;16.42;;;5.40;82.80;;;;;;5091799;28;20391;-37
2024/03/09 03:14:26;;;;;;;27.65;16.35;;;5.40;83.00;;;;;;5091771;28;20047;-36
2024/03/09 03:16:55;;;;;;;29.38;17.73;;;5.40;83.00;;;;;;5091547;28;20028;-37
2024/03/09 03:19:22;;;;;;;27.10;16.85;;;5.40;83.00;;;;;;5091929;28;20073;-37
2024/03/09 03:21:48;;;;;;;25.90;16.58;;;5.30;82.90;;;;;;5091900;28;20028;-36
2024/03/09 03:24:13;;;;;;;26.55;15.70;;;5.30;82.90;;;;;;5091600;28;20491;-37
2024/03/09 03:26:39;;;;;;;24.60;15.50;;;5.30;82.90;;;;;;5091423;28;20052;-36
2024/03/09 03:29:04;;;;;;;28.30;16.17;;;5.30;83.00;;;;;;5091707;28;20548;-36
2024/03/09 03:31:30;;;;;;;25.27;15.63;;;5.30;82.90;;;;;;5091636;28;20035;-37
2024/03/09 03:33:56;;;;;;;26.73;16.60;;;5.30;82.90;;;;;;5090337;28;20105;-36
2024/03/09 03:36:23;;;;;;;27.90;16.80;;;5.30;83.00;;;;;;5091213;28;20040;-36
2024/03/09 03:38:49;;;;;;;24.45;15.77;;;5.30;83.00;;;;;;5091313;28;20062;-35
2024/03/09 03:41:17;;;;;;;25.85;16.83;;;5.30;82.90;;;;;;5091469;28;20024;-37
2024/03/09 03:43:44;;;;;;;26.70;16.52;;;5.30;82.90;;;;;;5091553;28;20028;-36
2024/03/09 03:46:11;;;;;;;28.50;16.88;;;5.30;82.90;;;;;;5091706;28;20091;-37
2024/03/09 03:48:40;;;;;;;26.33;16.30;;;5.20;82.90;;;;;;5091649;28;20016;-36
2024/03/09 03:51:12;;;;;;;28.52;17.00;;;5.20;82.90;;;;;;5091346;28;20031;-36
2024/03/09 03:53:39;;;;;;;26.77;16.27;;;5.20;82.90;;;;;;5091693;28;20510;-37
2024/03/09 03:56:07;;;;;;;25.60;15.88;;;5.20;82.90;;;;;;5091157;28;20028;-36
2024/03/09 03:58:33;;;;;;;29.08;17.45;;;5.20;82.90;;;;;;5091154;28;20032;-37
2024/03/09 04:00:59;;;;;;;25.15;15.73;;;5.20;82.90;;;;;;5091716;28;20028;-36
2024/03/09 04:03:29;;;;;;;29.38;17.08;;;5.20;82.90;;;;;;5095319;28;20038;-36
2024/03/09 04:05:54;;;;;;;28.38;16.45;;;5.20;82.90;;;;;;5095380;28;20051;-35
2024/03/09 04:08:21;;;;;;;27.88;17.00;;;5.20;82.90;;;;;;5095284;28;20121;-37
2024/03/09 04:10:49;;;;;;;28.98;17.02;;;5.20;82.80;;;;;;5095402;28;20028;-34
2024/03/09 04:13:16;;;;;;;27.33;16.73;;;5.30;82.80;;;;;;5095432;28;20023;-35
2024/03/09 04:15:44;;;;;;;25.83;16.92;;;5.30;82.80;;;;;;5093661;28;20056;-32
2024/03/09 04:18:13;;;;;;;28.27;17.65;;;5.30;82.70;;;;;;5095145;28;20028;-37
2024/03/09 04:20:40;;;;;;;26.13;16.13;;;5.30;82.70;;;;;;5094961;28;20122;-37
2024/03/09 04:23:07;;;;;;;27.75;15.70;;;5.30;82.60;;;;;;5095149;28;20495;-34
2024/03/09 04:25:35;;;;;;;23.92;15.88;;;5.30;82.60;;;;;;5095190;28;20499;-36
2024/03/09 04:28:02;;;;;;;28.15;16.67;;;5.40;82.60;;;;;;5094565;28;20036;-36
2024/03/09 04:30:28;;;;;;;29.20;16.65;;;5.40;82.50;;;;;;5094855;28;20032;-36
2024/03/09 04:32:55;;;;;;;27.33;16.08;;;5.40;82.50;;;;;;5094967;28;20022;-36
2024/03/09 04:35:22;;;;;;;25.92;15.60;;;5.40;82.50;;;;;;5094571;28;20044;-36
2024/03/09 04:37:47;;;;;;;26.35;15.95;;;5.40;82.40;;;;;;5093510;28;20400;-36
2024/03/09 04:40:16;;;;;;;25.63;15.75;;;5.40;82.30;;;;;;5094553;28;20020;-37
2024/03/09 04:42:44;;;;;;;27.98;17.10;;;5.40;82.30;;;;;;5094430;28;20020;-37
2024/03/09 04:45:10;;;;;;;29.00;17.05;;;5.40;82.30;;;;;;5094599;28;20055;-37
2024/03/09 04:47:37;;;;;;;27.25;16.33;;;5.40;82.20;;;;;;5094378;28;20038;-37
2024/03/09 04:50:04;;;;;;;29.63;17.10;;;5.40;82.30;;;;;;5094517;28;20020;-36
2024/03/09 04:52:29;;;;;;;26.20;15.55;;;5.40;82.30;;;;;;5094716;28;20031;-35
2024/03/09 04:54:55;;;;;;;25.30;15.77;;;5.40;82.30;;;;;;5094354;28;20461;-36
2024/03/09 04:57:24;;;;;;;25.60;15.63;;;5.40;82.30;;;;;;5093993;28;20028;-37
2024/03/09 04:59:53;;;;;;;23.05;14.75;;;5.50;82.30;;;;;;5094575;28;20028;-36
2024/03/09 05:02:19;;;;;;;25.48;15.98;;;5.50;82.30;;;;;;5094055;28;20046;-35
2024/03/09 05:04:44;;;;;;;26.92;15.93;;;5.50;82.30;;;;;;5094114;28;20032;-35
2024/03/09 05:07:10;;;;;;;24.05;15.15;;;5.40;82.30;;;;;;5093789;28;20024;-36
2024/03/09 05:09:39;;;;;;;25.83;15.75;;;5.40;82.20;;;;;;5093993;28;20103;-37
2024/03/09 05:12:05;;;;;;;28.73;16.73;;;5.40;82.20;;;;;;5093928;28;20145;-35
2024/03/09 05:14:30;;;;;;;24.85;16.05;;;5.40;82.20;;;;;;5094072;28;20028;-36
2024/03/09 05:16:56;;;;;;;24.52;15.23;;;5.40;82.20;;;;;;5093830;28;20031;-36
2024/03/09 05:19:22;;;;;;;24.83;15.15;;;5.40;82.20;;;;;;5093975;28;20020;-37
2024/03/09 05:21:48;;;;;;;24.15;15.15;;;5.40;82.30;;;;;;5093806;28;20396;-37
2024/03/09 05:24:15;;;;;;;25.35;15.75;;;5.40;82.20;;;;;;5093910;28;20028;-37
2024/03/09 05:26:42;;;;;;;24.02;15.15;;;5.40;82.20;;;;;;5093630;28;20692;-37
2024/03/09 05:29:11;;;;;;;24.27;15.32;;;5.40;82.20;;;;;;5093731;28;20039;-35
2024/03/09 05:31:37;;;;;;;27.10;15.70;;;5.40;82.20;;;;;;5093695;28;20024;-36
2024/03/09 05:34:04;;;;;;;26.85;15.70;;;5.40;82.20;;;;;;5093443;28;20082;-37
2024/03/09 05:36:29;;;;;;;25.10;15.75;;;5.40;82.20;;;;;;5093552;28;20036;-36
2024/03/09 05:38:55;;;;;;;25.80;15.48;;;5.30;82.10;;;;;;5093372;28;20020;-38
2024/03/09 05:41:21;;;;;;;25.45;15.65;;;5.30;82.20;;;;;;5093633;28;20106;-37
2024/03/09 05:43:47;;;;;;;24.67;14.95;;;5.30;82.30;;;;;;5093487;28;20379;-37
2024/03/09 05:46:14;;;;;;;24.83;16.05;;;5.20;82.30;;;;;;5093550;28;20484;-37
2024/03/09 05:48:40;;;;;;;26.05;16.00;;;5.30;83.00;;;;;;5093277;28;20032;-36
2024/03/09 05:51:09;;;;;;;25.58;15.88;;;5.20;82.40;;;;;;5093343;28;20024;-37
2024/03/09 05:53:38;;;;;;;26.77;16.02;;;5.20;82.50;;;;;;5093180;28;20122;-37
2024/03/09 05:56:07;;;;;;;26.35;14.85;;;5.20;82.50;;;;;;5091770;28;20069;-38
2024/03/09 05:58:32;;;;;;;24.55;15.25;;;5.20;82.50;;;;;;5093366;28;20051;-37
2024/03/09 06:00:59;;;;;;;25.63;15.82;;;5.20;82.50;;;;;;5093345;28;20488;-37
2024/03/09 06:03:25;;;;;;;25.70;15.13;;;5.10;82.40;;;;;;5092922;28;20028;-36
2024/03/09 06:05:52;;;;;;;25.27;15.52;;;5.10;82.50;;;;;;5093046;28;20361;-36
2024/03/09 06:08:18;;;;;;;27.92;15.73;;;5.10;82.50;;;;;;5093174;28;20476;-36
2024/03/09 06:10:44;;;;;;;24.08;15.20;;;5.10;82.50;;;;;;5093119;28;20053;-37
2024/03/09 06:13:10;;;;;;;27.45;16.02;;;5.10;82.50;;;;;;5092648;28;20488;-37
2024/03/09 06:15:35;;;;;;;24.85;15.32;;;5.10;82.50;;;;;;5092986;28;20544;-38
2024/03/09 06:18:01;;;;;;;28.27;16.25;;;5.10;82.50;;;;;;5092557;28;20111;-36
2024/03/09 06:20:27;;;;;;;27.23;15.98;;;5.10;82.50;;;;;;5092638;28;20026;-36
2024/03/09 06:22:54;;;;;;;23.60;14.45;;;5.10;82.50;;;;;;5092746;28;20020;-37
2024/03/09 06:25:25;;;;;;;25.73;14.77;;;5.10;82.40;;;;;;5092068;28;20074;-36
2024/03/09 06:27:56;;;;;;;25.20;14.95;;;5.10;82.50;;;;;;5092853;28;20571;-38
2024/03/09 06:30:23;;;;;;;25.33;15.38;;;5.10;82.50;;;;;;5092909;28;20545;-37
2024/03/09 06:32:49;;;;;;;25.88;15.25;;;5.10;82.50;;;;;;5092775;28;20525;-37
2024/03/09 06:35:19;;;;;;;23.98;15.40;;;5.20;82.50;;;;;;5092179;28;20071;-36
2024/03/09 06:38:01;;;;;;;23.55;15.25;;;5.20;82.50;;;;;;5092607;28;20020;-38
2024/03/09 06:40:39;;;;;;;24.55;15.27;;;5.20;82.40;;;;;;5092580;28;20400;-36
2024/03/09 06:43:12;;;;;;;22.17;13.98;;;5.30;82.30;;;;;;5092631;28;20020;-38
2024/03/09 06:45:42;;;;;;;24.13;15.00;;;5.30;82.20;;;;;;5092067;28;20039;-36
2024/03/09 06:48:08;;;;;;;26.08;15.35;;;5.30;82.10;;;;;;5092426;28;20082;-37
2024/03/09 06:50:35;;;;;;;23.85;15.27;;;5.40;82.10;;;;;;5092102;28;20036;-38
2024/03/09 06:53:01;;;;;;;24.35;14.60;;;5.40;82.60;;;;;;5092068;28;20034;-37
2024/03/09 06:55:29;;;;;;;28.67;15.00;;;5.40;82.00;;;;;;5091914;28;20036;-34
2024/03/09 06:58:01;;;;;;;23.50;14.43;;;5.50;81.90;;;;;;5092266;28;20095;-36
2024/03/09 07:00:29;;;;;;;20.63;13.27;;;5.50;81.90;;;;;;5091994;28;20024;-36
2024/03/09 07:03:00;;;;;;;24.75;14.35;;;5.60;82.00;;;;;;5090654;28;20496;-36
2024/03/09 07:05:36;;;;;;;21.67;13.30;;;5.60;81.80;;;;;;5091811;28;20541;-36
2024/03/09 07:08:03;;;;;;;23.15;13.93;;;5.70;81.80;;;;;;5091635;28;20028;-36
2024/03/09 07:10:30;;;;;;;20.58;12.77;;;5.70;82.40;;;;;;5092183;28;20369;-35
2024/03/09 07:12:57;;;;;;;21.90;13.77;;;5.80;81.80;;;;;;5091916;28;20028;-38
2024/03/09 07:15:25;;;;;;;21.25;13.20;;;5.80;82.20;;;;;;5091920;28;20045;-36
2024/03/09 07:17:55;;;;;;;19.33;12.70;;;5.90;82.30;;;;;;5091716;28;20107;-35
2024/03/09 07:20:27;;;;;;;21.90;13.93;;;5.90;82.40;;;;;;5091755;28;20595;-36
2024/03/09 07:22:53;;;;;;;21.42;13.10;;;5.90;82.50;;;;;;5091962;28;20103;-38
2024/03/09 07:25:24;;;;;;;21.83;13.88;;;5.90;82.50;;;;;;5090212;28;20028;-38
2024/03/09 07:27:54;;;;;;;23.63;14.15;;;6.00;82.30;;;;;;5091675;28;20036;-36
2024/03/09 07:30:21;;;;;;;22.63;13.52;;;6.00;82.90;;;;;;5091545;28;20031;-36
2024/03/09 07:32:49;;;;;;;21.00;13.50;;;6.00;82.30;;;;;;5090137;28;20403;-36
2024/03/09 07:35:20;;;;;;;19.73;12.38;;;6.10;82.80;;;;;;5091340;28;20396;-38
2024/03/09 07:37:58;;;;;;;22.83;14.38;;;6.10;83.10;;;;;;5091482;28;20058;-36
2024/03/09 07:40:24;;;;;;;20.65;12.85;;;6.10;82.90;;;;;;5091711;28;20024;-39
2024/03/09 07:42:54;;;;;;;20.33;12.52;;;6.20;82.70;;;;;;5091881;28;20024;-36
2024/03/09 07:45:22;;;;;;;20.13;13.63;;;6.20;82.80;;;;;;5091700;28;20388;-36
2024/03/09 07:47:49;;;;;;;21.02;13.60;;;6.20;82.80;;;;;;5091270;28;20032;-36
2024/03/09 07:50:16;;;;;;;21.23;13.63;;;6.30;82.70;;;;;;5091504;28;20069;-37
2024/03/09 07:52:46;;;;;;;20.27;13.23;;;6.40;82.50;;;;;;5091095;28;20024;-36
2024/03/09 07:55:15;;;;;;;19.40;13.60;;;6.30;82.40;;;;;;5091136;28;20028;-36
2024/03/09 07:57:42;;;;;;;19.33;12.85;;;6.40;82.50;;;;;;5091455;28;20024;-37
2024/03/09 08:00:08;;;;;;;20.23;13.15;;;6.50;82.60;;;;;;5091315;28;20357;-36
2024/03/09 08:02:35;;;;;;;22.30;14.75;;;6.50;82.30;;;;;;5090046;28;20028;-38
2024/03/09 08:05:04;;;;;;;19.73;13.43;;;6.60;82.10;;;;;;5091984;28;20027;-39
2024/03/09 08:07:30;;;;;;;22.48;14.55;;;6.60;82.00;;;;;;5091167;28;20576;-37
2024/03/09 08:09:56;;;;;;;21.95;14.45;;;6.60;81.80;;;;;;5091375;28;20024;-35
2024/03/09 08:12:22;;;;;;;22.40;13.85;;;6.70;81.70;;;;;;5091350;28;20039;-34
2024/03/09 08:14:47;;;;;;;23.02;14.23;;;6.70;81.60;;;;;;5091297;28;20392;-36
2024/03/09 08:17:14;;;;;;;23.25;13.85;;;6.70;81.40;;;;;;5091116;28;20024;-40
2024/03/09 08:19:40;;;;;;;21.17;13.77;;;6.80;81.40;;;;;;5091340;28;20035;-37
2024/03/09 08:22:05;;;;;;;23.75;14.60;;;6.80;81.40;;;;;;5091385;28;20516;-37
2024/03/09 08:24:31;;;;;;;19.50;12.57;;;6.90;81.40;;;;;;5091330;28;20105;-37
2024/03/09 08:26:59;;;;;;;20.00;12.85;;;6.90;81.60;;;;;;5091026;28;20028;-37
2024/03/09 08:29:25;;;;;;;21.45;12.82;;;6.90;81.60;;;;;;5091422;28;20406;-37
2024/03/09 08:31:53;;;;;;;20.25;12.55;;;7.00;81.80;;;;;;5090923;28;20028;-38
2024/03/09 08:34:19;;;;;;;18.80;12.23;;;7.00;81.80;;;;;;5091064;28;20466;-37
2024/03/09 08:36:44;;;;;;;18.33;12.43;;;7.00;81.70;;;;;;5090699;28;20112;-38
2024/03/09 08:39:12;;;;;;;19.65;13.13;;;7.10;81.70;;;;;;5091173;28;20024;-37
2024/03/09 08:41:37;;;;;;;20.40;13.30;;;7.20;82.40;;;;;;5091138;28;20078;-36
2024/03/09 08:44:03;;;;;;;21.52;13.48;;;7.30;82.30;;;;;;5090735;28;20025;-37
2024/03/09 08:46:29;;;;;;;20.55;13.15;;;7.40;81.50;;;;;;5090899;28;20035;-37
2024/03/09 08:48:55;;;;;;;18.85;12.88;;;7.50;81.20;;;;;;5093289;28;20020;-38
2024/03/09 08:51:20;;;;;;;22.80;12.90;;;7.50;80.90;;;;;;5093094;28;20024;-36
2024/03/09 08:53:47;;;;;;;21.08;13.63;;;7.60;80.80;;;;;;5094307;28;20103;-36
2024/03/09 08:56:17;;;;;;;18.90;12.38;;;7.70;80.60;;;;;;5094356;28;20032;-37
2024/03/09 08:58:42;;;;;;;18.42;12.00;;;7.80;80.90;;;;;;5094131;28;20028;-37
2024/03/09 09:01:09;;;;;;;20.10;12.07;;;7.90;81.10;;;;;;5092912;28;20118;-34
2024/03/09 09:03:35;;;;;;;16.92;12.07;;;7.90;81.30;;;;;;5094242;28;20564;-37
2024/03/09 09:06:01;;;;;;;17.42;11.18;;;8.00;81.10;;;;;;5094159;28;20107;-37
2024/03/09 09:08:26;;;;;;;17.20;11.68;;;8.00;81.50;;;;;;5094163;28;20031;-36
2024/03/09 09:10:53;;;;;;;18.48;12.07;;;8.10;81.50;;;;;;5094144;28;20016;-34
2024/03/09 09:13:21;;;;;;;16.35;11.82;;;8.20;81.20;;;;;;5092960;28;20055;-36
2024/03/09 09:15:47;;;;;;;19.35;12.23;;;8.20;81.00;;;;;;5094160;28;20149;-37
2024/03/09 09:18:16;;;;;;;18.92;12.23;;;8.20;80.80;;;;;;5094335;28;20028;-37
2024/03/09 09:20:42;;;;;;;19.65;12.00;;;8.30;80.70;;;;;;5094143;28;20024;-36
2024/03/09 09:23:11;;;;;;;19.77;12.40;;;8.40;80.30;;;;;;5093795;28;20040;-36
2024/03/09 09:25:41;;;;;;;20.20;12.95;;;8.50;80.10;;;;;;5092532;28;20032;-35
2024/03/09 09:28:08;;;;;;;17.42;11.63;;;8.60;79.70;;;;;;5093670;28;20028;-34
2024/03/09 09:30:34;;;;;;;17.40;11.40;;;8.70;79.50;;;;;;5092486;28;20062;-38
2024/03/09 09:33:00;;;;;;;18.05;11.77;;;8.80;79.40;;;;;;5093917;28;20040;-36
2024/03/09 09:35:25;;;;;;;18.17;12.00;;;8.90;79.50;;;;;;5093458;28;20091;-37
2024/03/09 09:37:57;;;;;;;16.10;11.02;;;8.90;79.50;;;;;;5093153;28;20107;-37
2024/03/09 09:40:24;;;;;;;14.98;11.20;;;8.90;79.50;;;;;;5093640;28;20094;-37
2024/03/09 09:42:51;;;;;;;18.42;11.32;;;8.90;79.50;;;;;;5093191;28;20024;-36
2024/03/09 09:45:28;;;;;;;18.20;11.68;;;8.90;79.40;;;;;;5093405;28;20024;-36
2024/03/09 09:47:54;;;;;;;17.80;11.30;;;9.00;79.40;;;;;;5093498;28;20476;-37
2024/03/09 09:50:22;;;;;;;18.48;12.60;;;9.00;79.90;;;;;;5093285;28;20020;-37
2024/03/09 09:52:50;;;;;;;17.60;12.10;;;9.00;79.80;;;;;;5093300;28;20479;-37
2024/03/09 09:55:19;;;;;;;15.65;10.80;;;9.00;79.90;;;;;;5093303;28;20054;-34
2024/03/09 09:57:48;;;;;;;17.10;11.70;;;9.00;79.90;;;;;;5091555;28;20020;-36
2024/03/09 10:00:14;;;;;;;15.55;11.05;;;9.00;80.20;;;;;;5093237;28;20023;-38
2024/03/09 10:02:41;;;;;;;16.27;11.05;;;9.10;80.10;;;;;;5093235;28;20388;-37
2024/03/09 10:05:14;;;;;;;16.77;11.57;;;9.10;79.90;;;;;;5093063;28;20024;-39
2024/03/09 10:08:18;;;;;;;18.10;11.60;;;9.20;80.00;;;;;;5093135;28;20369;-35
2024/03/09 10:10:47;;;;;;;15.65;10.13;;;9.30;79.80;;;;;;5090481;28;20024;-44
2024/03/09 10:13:16;;;;;;;19.27;12.10;;;9.40;80.90;;;;;;5090177;28;20043;-48
2024/03/09 10:15:45;;;;;;;17.80;11.65;;;9.40;80.30;;;;;;5090708;28;20048;-36
2024/03/09 10:18:12;;;;;;;17.15;11.73;;;9.50;79.80;;;;;;5092680;28;20036;-37
2024/03/09 10:20:39;;;;;;;20.38;12.60;;;9.60;79.70;;;;;;5092844;28;20024;-36
2024/03/09 10:23:08;;;;;;;17.65;11.63;;;9.60;79.40;;;;;;5092988;28;20032;-34
2024/03/09 10:25:38;;;;;;;17.48;12.07;;;9.60;79.40;;;;;;5092915;28;20020;-39
2024/03/09 10:28:08;;;;;;;17.27;12.05;;;9.70;79.30;;;;;;5092967;28;20487;-35
2024/03/09 10:30:37;;;;;;;17.40;11.68;;;9.80;79.10;;;;;;5092862;28;20491;-37
2024/03/09 10:33:08;;;;;;;16.63;11.73;;;9.90;78.60;;;;;;5091304;28;20107;-37
2024/03/09 10:35:40;;;;;;;18.38;12.13;;;9.90;78.60;;;;;;5092124;28;20264;-39
2024/03/09 10:38:08;;;;;;;16.00;11.27;;;9.90;78.40;;;;;;5092424;28;20012;-37
2024/03/09 10:40:34;;;;;;;15.98;11.52;;;10.00;78.40;;;;;;5092346;28;20111;-38
2024/03/09 10:43:01;;;;;;;19.13;12.65;;;10.00;78.20;;;;;;5092034;28;20020;-35
2024/03/09 10:45:33;;;;;;;17.67;11.85;;;10.10;77.90;;;;;;5092194;28;20028;-37
2024/03/09 10:48:05;;;;;;;17.50;12.32;;;10.10;77.80;;;;;;5091926;28;20034;-36
2024/03/09 10:50:39;;;;;;;17.38;11.82;;;10.20;77.70;;;;;;5092339;28;20024;-36
2024/03/09 10:53:10;;;;;;;16.98;11.27;;;10.30;77.50;;;;;;5091999;28;20020;-37
2024/03/09 10:55:44;;;;;;;16.17;11.38;;;10.40;77.40;;;;;;5092214;28;20028;-35
2024/03/09 10:58:15;;;;;;;16.05;11.73;;;10.40;77.20;;;;;;5092217;28;20023;-35
2024/03/09 11:00:42;;;;;;;16.73;10.95;;;10.50;77.50;;;;;;5092092;28;20027;-36
2024/03/09 11:03:10;;;;;;;15.68;11.05;;;10.50;77.50;;;;;;5091827;28;20035;-38
2024/03/09 11:05:39;;;;;;;19.42;12.23;;;10.60;77.10;;;;;;5091713;28;20028;-37
2024/03/09 11:08:09;;;;;;;16.83;11.55;;;10.60;76.60;;;;;;5092012;28;20052;-38
2024/03/09 11:10:37;;;;;;;17.08;11.80;;;10.70;76.70;;;;;;5091731;28;20090;-36
2024/03/09 11:13:03;;;;;;;16.20;11.20;;;10.70;76.60;;;;;;5091664;28;20024;-36
2024/03/09 11:15:36;;;;;;;16.77;11.35;;;10.80;76.40;;;;;;5091644;28;20443;-37
2024/03/09 11:18:06;;;;;;;17.30;11.18;;;11.00;76.20;;;;;;5091901;28;20023;-36
2024/03/09 11:20:31;;;;;;;15.15;11.05;;;11.10;76.00;;;;;;5091812;28;20020;-36
2024/03/09 11:22:58;;;;;;;15.07;11.05;;;11.20;76.00;;;;;;5091864;28;20027;-38
2024/03/09 11:25:44;;;;;;;16.85;11.32;;;11.30;75.80;;;;;;5091906;28;20582;-39
2024/03/09 11:28:09;;;;;;;15.07;10.90;;;11.50;75.50;;;;;;5091588;28;20480;-37
2024/03/09 11:30:35;;;;;;;16.38;11.55;;;11.50;75.50;;;;;;5091653;28;20026;-41
2024/03/09 11:33:02;;;;;;;15.30;10.90;;;11.50;75.30;;;;;;5091877;28;20046;-42
2024/03/09 11:35:32;;;;;;;16.63;11.25;;;11.50;75.50;;;;;;5090982;28;20067;-39
2024/03/09 11:38:09;;;;;;;16.05;11.13;;;11.50;75.40;;;;;;5090335;28;20678;-37
2024/03/09 11:40:35;;;;;;;16.63;10.80;;;11.50;75.50;;;;;;5091466;28;20016;-37
2024/03/09 11:43:04;;;;;;;14.70;10.77;;;11.50;75.40;;;;;;5091307;28;20027;-36
2024/03/09 11:45:40;;;;;;;17.02;10.82;;;11.60;75.20;;;;;;5090094;28;20053;-39
2024/03/09 11:48:08;;;;;;;17.25;11.85;;;11.70;75.10;;;;;;5091361;28;20058;-37
2024/03/09 11:50:38;;;;;;;15.38;11.05;;;11.90;74.70;;;;;;5091593;28;20441;-36
2024/03/09 11:53:09;;;;;;;15.32;11.13;;;12.00;74.50;;;;;;5091767;28;20526;-38
2024/03/09 11:55:39;;;;;;;16.83;10.55;;;12.00;74.30;;;;;;5091465;28;20032;-37
2024/03/09 11:58:09;;;;;;;17.20;10.98;;;12.10;74.10;;;;;;5091494;28;20047;-37
2024/03/09 12:00:37;;;;;;;14.23;10.45;;;12.10;74.20;;;;;;5091221;28;20016;-36
2024/03/09 12:03:17;;;;;;;15.65;10.35;;;12.10;74.20;;;;;;5091124;28;20017;-36
2024/03/09 12:05:43;;;;;;;13.52;10.35;;;12.20;74.10;;;;;;5091040;28;20075;-33
2024/03/09 12:08:09;;;;;;;15.20;10.70;;;12.20;74.30;;;;;;5090492;28;20028;-38
2024/03/09 12:10:38;;;;;;;13.10;9.85;;;12.20;74.20;;;;;;5089963;28;20488;-36
2024/03/09 12:13:07;;;;;;;15.10;10.55;;;12.20;74.10;;;;;;5091122;28;20058;-38
2024/03/09 12:15:34;;;;;;;16.02;10.65;;;12.20;73.90;;;;;;5091103;28;20520;-37
2024/03/09 12:18:03;;;;;;;16.48;10.68;;;12.30;73.70;;;;;;5091075;28;20020;-37
2024/03/09 12:20:29;;;;;;;14.88;11.02;;;12.50;73.50;;;;;;5091060;28;20107;-36
2024/03/09 12:22:54;;;;;;;15.88;10.48;;;12.60;73.20;;;;;;5093504;28;20441;-38
2024/03/09 12:25:21;;;;;;;14.77;10.45;;;12.60;73.00;;;;;;5095097;28;20052;-36
2024/03/09 12:27:48;;;;;;;13.15;9.65;;;12.60;72.90;;;;;;5095031;28;20027;-36
2024/03/09 12:30:15;;;;;;;13.05;9.55;;;12.60;73.70;;;;;;5095361;28;20024;-37
2024/03/09 12:32:41;;;;;;;14.07;9.73;;;12.60;73.70;;;;;;5094706;28;20024;-35
2024/03/09 12:35:07;;;;;;;13.18;9.85;;;12.60;73.60;;;;;;5093534;28;20496;-39
2024/03/09 12:37:35;;;;;;;14.80;9.95;;;12.70;73.60;;;;;;5094829;28;20122;-37